EGPF/GLA METAR and TAF weather

Enter ICAO airport designator
Station Type Date Time Source
EGPF METAR 2019/02/17 07:20 UTC NOAA

EGPF 170720Z AUTO 13010G20KT 100V170 9999 OVC025 10/06 Q1004


Station Type Date Time Source
EGPF Decoded METAR 2019/02/17 07:20 UTC NOAA

Glasgow Airport, United Kingdom (EGPF) 55-52N 004-26W 0M
Feb 17, 2019 - 02:20 AM EST / 2019.02.17 0720 UTC
Wind: from the SE (130 degrees) at 12 MPH (10 KT) gusting to 23 MPH (20 KT) (direction variable):0
Visibility: greater than 7 mile(s):0
Sky conditions: overcast
Temperature: 50 F (10 C)
Dew Point: 42 F (6 C)
Relative Humidity: 76%
Pressure (altimeter): 29.65 in. Hg (1004 hPa)
ob: EGPF 170720Z AUTO 13010G20KT 100V170 9999 OVC025 10/06 Q1004
cycle: 7

Station Type Date Time Source
EGPF TAF 2019/02/17 06:06 UTC NOAA

TAF EGPF 170454Z 1706/1806 18012KT 9999 SCT014 BKN025
TEMPO 1706/1806 19018G28KT
TEMPO 1706/1714 7000 -RA BKN014 PROB30
TEMPO 1709/1713 RA PROB30
TEMPO 1721/1806 7000 SHRA BKN014


Example: see airport list